Time;durP1;ratioP1;P1;durP2;ratioP2;P2;SDS_P1;SDS_P2;PMS_P1;PMS_P2;Temp;Humidity;BMP_temperature;BMP_pressure;BME280_temperature;BME280_humidity;BME280_pressure;Samples;Min_cycle;Max_cycle;Signal;HPM_P1;HPM_P2
2022/05/07 18:09:20;;;;;;;5.00;2.90;;;14.50;99.90;;;;;;5128180;27;20461;-74
2022/05/07 18:11:46;;;;;;;6.70;3.78;;;12.90;99.90;;;;;;5126862;27;20051;-74
2022/05/07 18:14:14;;;;;;;9.65;4.22;;;12.90;99.90;;;;;;5108924;28;20548;-75
2022/05/07 18:16:40;;;;;;;14.27;3.95;;;12.80;99.90;;;;;;5093161;28;20097;-74
2022/05/07 18:19:07;;;;;;;11.48;4.10;;;12.20;99.90;;;;;;5108412;28;20506;-74
2022/05/07 18:21:36;;;;;;;15.32;3.72;;;13.60;99.90;;;;;;5093176;28;20122;-73
2022/05/07 18:24:03;;;;;;;6.97;3.85;;;13.10;99.90;;;;;;5091452;28;20071;-74
2022/05/07 18:26:30;;;;;;;10.07;3.65;;;12.60;99.90;;;;;;5128028;28;20059;-74
2022/05/07 18:28:56;;;;;;;10.85;4.43;;;12.60;99.90;;;;;;5091398;28;20491;-74
2022/05/07 18:31:23;;;;;;;8.73;3.95;;;12.80;99.90;;;;;;5125353;28;20054;-75
2022/05/07 18:33:52;;;;;;;8.32;4.10;;;12.60;99.90;;;;;;5127600;27;20051;-74
2022/05/07 18:44:31;;;;;;;9.63;4.40;;;12.50;99.90;;;;;;5124577;28;20574;-74
2022/05/07 18:46:59;;;;;;;8.82;5.13;;;12.50;99.90;;;;;;5126351;28;20047;-74
2022/05/07 18:49:26;;;;;;;10.80;4.85;;;12.50;99.90;;;;;;5124666;28;20082;-74
2022/05/07 18:51:51;;;;;;;11.27;4.35;;;12.50;99.90;;;;;;5126055;28;20524;-74
2022/05/07 18:54:17;;;;;;;11.05;4.78;;;12.50;99.90;;;;;;5126824;28;20047;-74
2022/05/07 18:59:27;;;;;;;12.45;4.60;;;12.40;99.90;;;;;;5126321;28;20039;-74
2022/05/07 19:01:53;;;;;;;14.38;4.70;;;12.40;99.90;;;;;;5107635;28;20463;-74
2022/05/07 19:04:19;;;;;;;9.75;3.88;;;12.40;99.90;;;;;;5127028;28;20066;-74
2022/05/07 19:06:45;;;;;;;9.15;5.00;;;12.30;99.90;;;;;;5124238;28;20225;-74
2022/05/07 19:09:11;;;;;;;10.43;4.57;;;12.20;99.90;;;;;;5146281;27;20054;-74
2022/05/07 19:11:36;;;;;;;7.93;3.80;;;12.50;99.90;;;;;;5147204;27;20091;-74
2022/05/07 19:14:02;;;;;;;10.18;4.05;;;12.10;99.90;;;;;;5128160;27;20061;-74
2022/05/07 19:16:28;;;;;;;7.90;3.28;;;12.20;99.90;;;;;;5147999;27;20435;-74
2022/05/07 19:18:54;;;;;;;11.77;3.80;;;12.10;99.90;;;;;;5142319;27;20081;-74
2022/05/07 19:21:20;;;;;;;12.55;4.38;;;12.00;99.90;;;;;;5134028;27;20478;-74
2022/05/07 19:23:46;;;;;;;16.42;3.75;;;11.90;99.90;;;;;;5132234;27;20039;-75
2022/05/07 19:26:12;;;;;;;9.93;3.50;;;11.80;99.90;;;;;;5115387;27;20410;-74
2022/05/07 19:28:38;;;;;;;14.25;3.80;;;12.20;99.90;;;;;;5133309;27;20455;-75
2022/05/07 19:31:06;;;;;;;14.15;3.40;;;11.60;99.90;;;;;;5132382;27;20031;-74
2022/05/07 19:33:32;;;;;;;9.65;3.08;;;11.50;99.90;;;;;;5115468;27;20126;-75
2022/05/07 19:36:04;;;;;;;7.88;3.20;;;11.40;99.90;;;;;;5131857;27;20534;-75
2022/05/07 19:38:31;;;;;;;18.33;3.22;;;11.40;99.90;;;;;;5115261;27;20402;-76
2022/05/07 19:40:58;;;;;;;15.32;3.60;;;11.30;99.90;;;;;;5132425;27;20054;-75
2022/05/07 19:43:24;;;;;;;9.95;2.97;;;11.20;99.90;;;;;;5114654;27;20161;-75
2022/05/07 19:45:49;;;;;;;15.18;4.40;;;11.10;99.90;;;;;;5114869;27;20043;-75
2022/05/07 19:48:16;;;;;;;17.05;4.10;;;11.00;99.90;;;;;;5132060;27;20043;-75
2022/05/07 19:50:41;;;;;;;12.93;3.20;;;10.90;99.90;;;;;;5133800;27;20487;-75
2022/05/07 19:53:07;;;;;;;22.63;3.30;;;11.50;99.90;;;;;;5131740;27;20038;-74
2022/05/07 19:55:33;;;;;;;13.38;3.72;;;10.80;99.90;;;;;;5115020;27;20039;-76
2022/05/07 19:57:59;;;;;;;12.38;2.75;;;10.70;99.90;;;;;;5131836;27;20105;-76
2022/05/07 20:00:25;;;;;;;18.00;2.85;;;10.70;99.90;;;;;;5097863;27;20073;-75
2022/05/07 20:02:51;;;;;;;16.48;3.60;;;11.50;99.90;;;;;;5114253;27;20482;-75
2022/05/07 20:05:17;;;;;;;14.02;3.05;;;10.60;99.90;;;;;;5113648;27;20092;-75
2022/05/07 20:07:43;;;;;;;20.85;3.30;;;10.50;99.90;;;;;;5132897;27;20054;-75
2022/05/07 20:10:09;;;;;;;13.45;3.00;;;11.50;99.90;;;;;;5077732;27;20115;-74
2022/05/07 20:12:38;;;;;;;18.70;4.03;;;10.40;99.90;;;;;;5113532;27;20126;-73
2022/05/07 20:15:04;;;;;;;13.05;3.00;;;11.00;99.90;;;;;;5111564;27;20126;-73
2022/05/07 20:17:31;;;;;;;23.65;4.00;;;10.30;99.90;;;;;;5113044;27;20478;-74
2022/05/07 20:19:57;;;;;;;19.70;3.85;;;10.30;99.90;;;;;;5112630;27;20160;-74
2022/05/07 20:22:24;;;;;;;21.60;3.63;;;10.20;99.90;;;;;;5111724;27;20099;-74
2022/05/07 20:24:50;;;;;;;12.93;3.78;;;10.20;99.90;;;;;;5131825;27;20043;-74
2022/05/07 20:27:18;;;;;;;19.00;4.10;;;10.10;99.90;;;;;;5111152;27;20408;-73
2022/05/07 20:29:43;;;;;;;15.40;3.70;;;10.10;99.90;;;;;;5131733;27;20115;-75
2022/05/07 20:32:10;;;;;;;19.45;3.50;;;11.20;99.90;;;;;;5128697;27;20371;-75
2022/05/07 20:34:36;;;;;;;15.68;2.95;;;10.20;99.90;;;;;;5131382;27;20073;-75
2022/05/07 20:37:03;;;;;;;11.88;3.03;;;10.00;99.90;;;;;;5112097;27;20611;-75
2022/05/07 20:39:33;;;;;;;13.60;2.90;;;9.90;99.90;;;;;;5130452;27;20066;-75
2022/05/07 20:41:59;;;;;;;13.30;3.33;;;9.80;99.90;;;;;;5095930;27;20050;-75
2022/05/07 20:47:09;;;;;;;14.65;2.72;;;9.70;99.90;;;;;;5130850;27;20171;-75
2022/05/07 20:49:36;;;;;;;13.90;2.65;;;10.80;99.90;;;;;;5111394;27;20043;-75
2022/05/07 20:52:02;;;;;;;9.60;2.80;;;9.60;99.90;;;;;;5112163;27;20090;-74
2022/05/07 20:54:29;;;;;;;19.30;3.10;;;9.50;99.90;;;;;;5130857;27;20043;-74
2022/05/07 20:56:55;;;;;;;22.85;3.08;;;9.50;99.90;;;;;;5109879;27;20082;-74
2022/05/07 20:59:21;;;;;;;19.10;3.28;;;9.50;99.90;;;;;;5130759;27;20082;-74
2022/05/07 21:01:48;;;;;;;19.42;3.28;;;9.40;99.90;;;;;;5128889;27;20092;-74
2022/05/07 21:04:16;;;;;;;16.65;2.70;;;9.40;99.90;;;;;;5112499;27;20043;-74
2022/05/07 21:06:42;;;;;;;19.75;3.45;;;9.40;99.90;;;;;;5129596;27;20390;-74
2022/05/07 21:09:09;;;;;;;11.50;2.30;;;10.20;99.90;;;;;;5111281;27;20430;-75
2022/05/07 21:11:35;;;;;;;23.92;2.80;;;9.30;99.90;;;;;;5112521;27;20522;-74
2022/05/07 21:14:02;;;;;;;11.13;2.47;;;9.20;99.90;;;;;;5129015;27;20078;-74
2022/05/07 21:16:29;;;;;;;12.30;2.33;;;9.30;99.90;;;;;;5095085;27;20126;-74
2022/05/07 21:18:56;;;;;;;15.45;2.47;;;9.20;99.90;;;;;;5092738;27;20047;-74
2022/05/07 21:21:23;;;;;;;18.40;2.25;;;9.10;99.90;;;;;;5130552;27;20135;-74
2022/05/07 21:23:48;;;;;;;17.27;2.63;;;9.10;99.90;;;;;;5110661;27;20486;-75
2022/05/07 21:26:32;;;;;;;25.60;2.92;;;9.50;99.90;;;;;;5111042;27;20171;-74
2022/05/07 21:29:00;;;;;;;19.05;3.03;;;9.10;99.90;;;;;;5111686;27;20103;-75
2022/05/07 21:31:27;;;;;;;19.05;2.38;;;9.00;99.90;;;;;;5110030;27;20104;-73
2022/05/07 21:33:54;;;;;;;12.35;2.00;;;8.90;99.90;;;;;;5094913;27;20047;-73
2022/05/07 21:36:20;;;;;;;14.25;2.58;;;8.90;99.90;;;;;;5110148;27;20051;-73
2022/05/07 21:38:46;;;;;;;16.35;2.67;;;8.90;99.90;;;;;;5111251;27;20054;-74
2022/05/07 21:41:13;;;;;;;17.60;2.70;;;8.90;99.90;;;;;;5093913;27;20039;-74
2022/05/07 21:43:38;;;;;;;19.08;2.80;;;8.80;99.90;;;;;;5128502;27;20495;-74
2022/05/07 21:46:07;;;;;;;20.00;2.85;;;8.80;99.90;;;;;;5111631;27;20043;-74
2022/05/07 21:48:32;;;;;;;19.60;2.65;;;8.80;99.90;;;;;;5109477;27;20092;-74
2022/05/07 21:53:26;;;;;;;17.85;2.53;;;8.70;99.90;;;;;;5108996;27;20047;-74
2022/05/07 21:55:52;;;;;;;22.42;2.78;;;8.70;99.90;;;;;;5093323;27;20046;-74
2022/05/07 21:58:18;;;;;;;23.48;3.42;;;8.70;99.90;;;;;;5092044;28;20039;-74
2022/05/07 22:00:56;;;;;;;23.17;2.80;;;8.60;99.90;;;;;;5127139;27;20039;-74
2022/05/07 22:03:26;;;;;;;18.35;3.15;;;8.60;99.90;;;;;;5127826;27;20110;-74
2022/05/07 22:05:52;;;;;;;21.73;2.85;;;8.60;99.90;;;;;;5108174;28;20672;-74
2022/05/07 22:08:18;;;;;;;20.92;3.22;;;8.60;99.90;;;;;;5109685;28;20047;-74
2022/05/07 22:10:45;;;;;;;23.48;4.35;;;8.60;99.90;;;;;;5127211;28;20047;-73
2022/05/07 22:13:12;;;;;;;24.33;2.75;;;8.60;99.90;;;;;;5109761;28;20382;-74
2022/05/07 22:15:39;;;;;;;18.73;3.03;;;8.50;99.90;;;;;;5127497;28;20514;-74
2022/05/07 22:18:05;;;;;;;14.23;2.70;;;8.50;99.90;;;;;;5127587;28;20143;-74
2022/05/07 22:20:31;;;;;;;16.05;2.58;;;8.50;99.90;;;;;;5127804;28;20043;-74
2022/05/07 22:22:57;;;;;;;18.30;3.22;;;8.50;99.90;;;;;;5126304;28;20089;-74
2022/05/07 22:25:23;;;;;;;18.02;2.88;;;8.50;99.90;;;;;;5127793;28;20078;-74
2022/05/07 22:27:49;;;;;;;23.00;3.78;;;8.40;99.90;;;;;;5108394;28;20085;-74
2022/05/07 22:30:14;;;;;;;13.05;2.70;;;8.40;99.90;;;;;;5109305;28;20039;-75
2022/05/07 22:32:40;;;;;;;15.02;2.08;;;7.40;99.90;;;;;;5092429;28;20043;-74
2022/05/07 22:35:07;;;;;;;15.25;2.72;;;8.40;99.90;;;;;;5127057;28;20389;-74
2022/05/07 22:37:33;;;;;;;15.90;3.67;;;8.40;99.90;;;;;;5109350;28;20096;-74
2022/05/07 22:39:58;;;;;;;12.10;3.05;;;8.30;99.90;;;;;;5126379;28;20043;-74
2022/05/07 22:42:24;;;;;;;20.60;2.42;;;9.10;99.90;;;;;;5109395;28;20059;-74
2022/05/07 22:44:50;;;;;;;15.63;2.08;;;9.10;99.90;;;;;;5108680;28;20051;-74
2022/05/07 22:47:15;;;;;;;17.48;2.47;;;9.00;99.90;;;;;;5127522;28;20078;-74
2022/05/07 22:49:41;;;;;;;19.30;2.97;;;8.20;99.90;;;;;;5108771;28;20039;-74
2022/05/07 22:52:07;;;;;;;18.17;3.15;;;9.20;99.90;;;;;;5074844;28;20511;-74
2022/05/07 22:54:33;;;;;;;11.18;2.60;;;8.20;99.90;;;;;;5129136;27;20049;-74
2022/05/07 22:56:59;;;;;;;13.68;2.75;;;8.10;99.90;;;;;;5111549;27;20038;-74
2022/05/07 22:59:25;;;;;;;12.65;1.98;;;8.00;99.90;;;;;;5096433;27;20097;-74
2022/05/07 23:01:51;;;;;;;13.50;2.90;;;7.90;99.90;;;;;;5111849;27;20379;-74
2022/05/07 23:04:16;;;;;;;15.93;2.75;;;8.00;99.90;;;;;;5131708;27;20043;-74
2022/05/07 23:06:42;;;;;;;18.67;2.92;;;8.00;99.90;;;;;;5112423;27;20046;-74
2022/05/07 23:09:08;;;;;;;27.05;3.30;;;8.50;99.90;;;;;;5130170;27;20405;-74
2022/05/07 23:11:33;;;;;;;15.00;2.55;;;7.90;99.90;;;;;;5095762;27;20122;-74
2022/05/07 23:13:59;;;;;;;18.77;3.08;;;8.00;99.90;;;;;;5111569;27;20161;-74
2022/05/07 23:16:25;;;;;;;19.58;3.25;;;7.90;99.90;;;;;;5131715;27;20436;-74
2022/05/07 23:18:50;;;;;;;24.70;3.03;;;7.80;99.90;;;;;;5112207;27;20698;-74
2022/05/07 23:21:16;;;;;;;13.15;2.92;;;7.80;99.90;;;;;;5096293;27;20040;-75
2022/05/07 23:23:43;;;;;;;22.45;3.85;;;7.80;99.90;;;;;;5112417;27;20041;-75
2022/05/07 23:26:09;;;;;;;17.75;4.10;;;7.90;99.90;;;;;;5077858;27;20047;-75
2022/05/07 23:28:35;;;;;;;14.15;3.40;;;7.70;99.90;;;;;;5131132;27;20039;-75
2022/05/07 23:31:00;;;;;;;11.38;3.20;;;7.70;99.90;;;;;;5129624;27;20047;-74
2022/05/07 23:33:26;;;;;;;13.13;2.70;;;8.90;99.90;;;;;;5131014;27;20058;-74
2022/05/07 23:35:52;;;;;;;16.15;3.00;;;7.70;99.90;;;;;;5110960;27;20043;-74
2022/05/07 23:38:18;;;;;;;23.67;3.63;;;7.60;99.90;;;;;;5130896;27;20398;-75
2022/05/07 23:40:46;;;;;;;18.75;3.08;;;7.60;99.90;;;;;;5130215;27;20123;-74
2022/05/07 23:43:13;;;;;;;8.02;2.42;;;7.60;99.90;;;;;;5095215;27;20087;-74
2022/05/07 23:45:38;;;;;;;12.10;2.47;;;7.50;99.90;;;;;;5130503;27;20051;-74
2022/05/07 23:48:05;;;;;;;19.58;2.53;;;8.50;99.90;;;;;;5093543;27;20061;-74
2022/05/07 23:50:30;;;;;;;17.38;3.30;;;7.50;99.90;;;;;;5130420;27;20047;-74
2022/05/07 23:52:56;;;;;;;20.35;3.50;;;7.50;99.90;;;;;;5129160;27;20502;-74
2022/05/07 23:55:22;;;;;;;14.00;2.95;;;8.60;99.90;;;;;;5112455;27;20042;-74
2022/05/07 23:57:48;;;;;;;11.73;2.90;;;7.40;99.90;;;;;;5111563;27;20034;-74
